Time;durP1;ratioP1;P1;durP2;ratioP2;P2;SDS_P1;SDS_P2;PMS_P1;PMS_P2;Temp;Humidity;BMP_temperature;BMP_pressure;BME280_temperature;BME280_humidity;BME280_pressure;Samples;Min_cycle;Max_cycle;Signal;HPM_P1;HPM_P2
2023/02/02 00:05:45;;;;;;;3.17;0.55;;;;;;;2.64;74.89;97462.31;10570547;28;20397;-76
2023/02/02 00:11:05;;;;;;;4.10;0.50;;;;;;;2.78;75.04;97458.84;10539461;28;20044;-76
2023/02/02 00:16:29;;;;;;;3.70;0.60;;;;;;;2.90;74.28;97464.78;10538828;28;20039;-76
2023/02/02 00:21:51;;;;;;;3.00;0.30;;;;;;;2.97;73.79;97469.53;10552624;28;20040;-76
2023/02/02 00:27:12;;;;;;;4.20;0.40;;;;;;;3.00;73.13;97468.47;10538637;28;20044;-76
2023/02/02 00:32:33;;;;;;;2.45;0.43;;;;;;;2.83;72.51;97459.97;10538651;28;20043;-76
2023/02/02 00:37:54;;;;;;;2.72;0.43;;;;;;;2.68;73.24;97465.44;10537701;28;20048;-76
2023/02/02 00:43:16;;;;;;;4.43;0.77;;;;;;;2.67;73.25;97461.22;10534920;28;20128;-76
2023/02/02 00:48:36;;;;;;;2.13;0.32;;;;;;;2.73;72.79;97479.06;10551884;28;20043;-76
2023/02/02 00:53:57;;;;;;;3.75;0.40;;;;;;;2.80;73.28;97478.34;10550574;28;20050;-76
2023/02/02 00:59:21;;;;;;;5.40;0.57;;;;;;;2.92;72.20;97491.78;10551757;28;20044;-76
2023/02/02 01:04:42;;;;;;;4.97;0.47;;;;;;;3.02;72.33;97487.94;10490947;28;1450844;-76
2023/02/02 01:10:04;;;;;;;4.72;0.50;;;;;;;3.10;71.32;97483.16;10516296;28;20052;-76
2023/02/02 01:15:25;;;;;;;2.88;0.60;;;;;;;3.20;71.50;97493.66;10512736;28;20085;-76
2023/02/02 01:20:46;;;;;;;5.00;0.50;;;;;;;3.26;71.49;97472.13;10551332;28;20040;-76
2023/02/02 01:26:09;;;;;;;4.85;0.60;;;;;;;3.37;71.02;97477.25;10548805;28;20039;-76
2023/02/02 01:31:30;;;;;;;3.20;0.47;;;;;;;3.43;70.34;97477.81;10535702;28;20371;-76
2023/02/02 01:36:51;;;;;;;5.28;0.85;;;;;;;3.41;70.14;97472.88;10551635;28;20073;-77
2023/02/02 01:42:14;;;;;;;5.82;0.55;;;;;;;3.41;70.10;97478.38;10537991;28;20089;-76
2023/02/02 01:47:43;;;;;;;4.57;0.70;;;;;;;3.34;69.80;97475.63;10526208;28;20039;-76
2023/02/02 01:53:04;;;;;;;3.72;0.63;;;;;;;3.03;69.68;97481.13;10547408;28;20534;-76
2023/02/02 01:58:28;;;;;;;2.92;0.50;;;;;;;2.76;70.33;97472.44;10560525;28;20473;-76
2023/02/02 02:03:49;;;;;;;3.85;0.50;;;;;;;2.69;70.44;97475.19;10546437;28;20054;-76
2023/02/02 02:09:10;;;;;;;2.50;0.68;;;;;;;2.59;70.21;97483.97;10545843;28;20047;-76
2023/02/02 02:26:37;;;;;;;6.50;0.60;;;;;;;2.68;70.04;97487.50;10588603;28;20047;-76
2023/02/02 02:32:05;;;;;;;5.43;0.65;;;;;;;2.71;70.42;97472.63;10559067;28;20051;-76
2023/02/02 02:37:43;;;;;;;4.22;0.63;;;;;;;2.85;69.49;97476.69;10573071;28;20488;-76
2023/02/02 02:43:26;;;;;;;4.20;0.60;;;;;;;2.94;69.74;97470.66;10558642;28;20047;-76
2023/02/02 02:48:50;;;;;;;4.88;0.70;;;;;;;2.94;69.57;97475.44;10555329;28;20054;-76
2023/02/02 02:54:28;;;;;;;6.20;0.82;;;;;;;2.94;68.60;97475.44;10558188;28;20100;-76
2023/02/02 03:00:00;;;;;;;4.40;0.40;;;;;;;2.70;69.48;97474.66;10544556;28;20043;-76
2023/02/02 03:05:53;;;;;;;6.05;0.63;;;;;;;2.52;68.12;97470.22;10558554;28;20051;-76
2023/02/02 03:11:14;;;;;;;3.28;0.40;;;;;;;2.43;68.59;97457.69;10543098;28;20047;-76
2023/02/02 03:16:38;;;;;;;4.68;0.80;;;;;;;2.35;68.35;97451.41;10557132;28;20036;-76
2023/02/02 03:21:59;;;;;;;4.38;0.70;;;;;;;2.26;68.68;97460.94;10542710;28;20428;-76
2023/02/02 03:27:20;;;;;;;6.55;0.60;;;;;;;2.19;68.59;97472.66;10542843;28;20445;-76
2023/02/02 03:32:41;;;;;;;2.92;0.68;;;;;;;2.11;68.81;97465.63;10556223;28;20054;-76
2023/02/02 03:38:02;;;;;;;3.67;0.52;;;;;;;2.01;68.87;97471.66;10542265;28;20393;-76
2023/02/02 03:43:23;;;;;;;3.10;0.40;;;;;;;1.98;68.69;97478.25;10556038;28;20465;-76
2023/02/02 03:48:44;;;;;;;4.53;0.60;;;;;;;1.98;68.71;97467.25;10541774;28;20036;-76
2023/02/02 03:54:05;;;;;;;2.10;0.57;;;;;;;1.97;68.37;97479.53;10555710;28;20071;-76
2023/02/02 03:59:26;;;;;;;3.53;0.52;;;;;;;1.91;68.22;97481.69;10541409;28;20051;-76
2023/02/02 04:04:46;;;;;;;4.13;0.60;;;;;;;1.99;68.26;97487.25;10555044;28;20055;-76
2023/02/02 04:10:08;;;;;;;4.55;0.32;;;;;;;2.14;68.73;97486.59;10539847;28;20070;-76
2023/02/02 04:15:29;;;;;;;2.67;0.40;;;;;;;2.38;67.66;97497.16;10554557;28;20477;-76
2023/02/02 04:20:55;;;;;;;4.75;0.40;;;;;;;2.55;67.33;97480.13;10568582;28;20039;-76
2023/02/02 04:26:16;;;;;;;3.50;0.43;;;;;;;2.59;67.10;97486.75;10554554;28;20074;-76
2023/02/02 04:31:37;;;;;;;4.35;0.45;;;;;;;2.56;66.99;97482.31;10554580;28;20069;-76
2023/02/02 04:36:58;;;;;;;6.78;0.40;;;;;;;2.67;67.57;97495.03;10553876;28;20040;-76
2023/02/02 04:42:19;;;;;;;3.47;0.50;;;;;;;2.82;66.22;97516.41;10553442;28;20070;-76
2023/02/02 04:47:40;;;;;;;2.22;0.50;;;;;;;2.98;65.70;97530.94;10539463;28;20043;-76
2023/02/02 04:53:00;;;;;;;5.07;0.50;;;;;;;3.06;65.41;97531.69;10539772;28;20074;-76
2023/02/02 04:58:21;;;;;;;3.65;0.40;;;;;;;3.18;65.09;97530.03;10539574;28;20036;-76
2023/02/02 05:03:42;;;;;;;7.47;0.50;;;;;;;3.15;65.01;97528.41;10550823;28;20059;-76
2023/02/02 05:09:04;;;;;;;6.90;0.60;;;;;;;3.24;64.35;97551.94;10530920;28;20374;-76
2023/02/02 05:14:25;;;;;;;5.78;0.47;;;;;;;3.33;63.84;97554.91;10549946;28;20035;-76
2023/02/02 05:19:46;;;;;;;4.03;0.43;;;;;;;3.33;63.64;97551.41;10564291;28;20042;-76
2023/02/02 05:25:07;;;;;;;7.15;0.70;;;;;;;3.40;63.42;97553.44;10538794;28;20031;-76
2023/02/02 05:30:28;;;;;;;4.15;1.48;;;;;;;3.39;63.96;97557.50;10545643;28;20047;-76
2023/02/02 05:35:50;;;;;;;4.57;0.90;;;;;;;3.35;63.89;97559.88;10553349;28;20473;-76
2023/02/02 05:41:11;;;;;;;4.32;0.50;;;;;;;3.44;63.81;97581.41;10537290;28;20048;-76
2023/02/02 05:46:32;;;;;;;7.43;0.50;;;;;;;3.47;64.04;97585.81;10551033;28;20046;-76
2023/02/02 05:51:54;;;;;;;4.22;0.50;;;;;;;3.50;63.19;97590.25;10536228;28;20050;-76
2023/02/02 05:57:15;;;;;;;5.78;0.77;;;;;;;3.47;62.55;97591.31;10537560;28;20047;-76
2023/02/02 06:02:36;;;;;;;5.22;0.80;;;;;;;3.41;63.06;97599.78;10551946;28;20052;-76
2023/02/02 06:07:57;;;;;;;2.40;0.40;;;;;;;3.44;63.54;97606.22;10551395;28;20496;-76
2023/02/02 06:13:18;;;;;;;4.13;0.98;;;;;;;3.45;63.24;97611.19;10551919;28;20043;-76
2023/02/02 06:18:39;;;;;;;4.18;0.82;;;;;;;3.51;63.25;97616.56;10551325;28;20044;-76
2023/02/02 06:24:00;;;;;;;5.03;0.77;;;;;;;3.59;62.86;97625.59;10551344;28;20040;-76
2023/02/02 06:29:22;;;;;;;6.28;0.80;;;;;;;3.63;62.92;97617.66;10551683;28;20477;-76
2023/02/02 06:34:43;;;;;;;4.65;0.55;;;;;;;3.67;63.02;97623.56;10554863;28;20036;-77
2023/02/02 06:40:06;;;;;;;9.48;0.80;;;;;;;3.70;63.28;97627.97;10558835;28;20039;-76
2023/02/02 06:45:27;;;;;;;6.20;0.95;;;;;;;3.72;62.57;97655.75;10558381;28;20397;-76
2023/02/02 06:50:48;;;;;;;4.53;0.55;;;;;;;3.76;63.39;97658.16;10544175;28;20047;-76
2023/02/02 06:56:11;;;;;;;6.07;0.60;;;;;;;3.81;63.19;97660.00;10557810;28;20044;-77
2023/02/02 07:01:32;;;;;;;5.13;0.55;;;;;;;3.82;62.99;97666.25;10543930;28;20039;-77
2023/02/02 07:06:53;;;;;;;4.00;0.45;;;;;;;3.87;63.35;97676.41;10529593;28;20118;-76
2023/02/02 07:12:14;;;;;;;3.38;0.55;;;;;;;3.94;63.17;97681.19;10504939;28;20625;-76
2023/02/02 07:17:36;;;;;;;6.32;1.70;;;;;;;4.01;63.02;97685.97;10492105;28;20094;-77
2023/02/02 07:22:56;;;;;;;6.68;0.90;;;;;;;4.05;62.89;97688.38;10515146;28;20444;-76
2023/02/02 07:28:18;;;;;;;6.28;0.95;;;;;;;4.13;63.21;97692.59;10508626;28;20052;-77
2023/02/02 07:33:41;;;;;;;7.10;0.70;;;;;;;4.39;62.75;97690.75;10459254;28;20482;-76
2023/02/02 07:39:03;;;;;;;3.20;0.68;;;;;;;4.69;62.27;97693.47;10500841;28;20075;-76
2023/02/02 07:44:24;;;;;;;8.38;1.10;;;;;;;5.13;61.09;97693.16;10472116;28;20417;-75
2023/02/02 07:49:45;;;;;;;7.07;1.23;;;;;;;5.35;60.61;97694.38;10486096;28;20394;-76
2023/02/02 07:55:07;;;;;;;6.22;1.05;;;;;;;5.42;59.97;97708.19;10486457;28;20493;-76
2023/02/02 08:00:34;;;;;;;7.57;1.08;;;;;;;5.38;59.76;97707.81;10486840;28;20040;-76
2023/02/02 08:05:56;;;;;;;9.15;0.90;;;;;;;5.34;59.57;97715.78;10501118;28;20055;-76
2023/02/02 08:11:19;;;;;;;4.57;0.70;;;;;;;5.61;60.37;97726.34;10509867;28;20406;-76
2023/02/02 08:16:39;;;;;;;5.82;0.63;;;;;;;5.59;59.52;97717.84;10485280;28;20041;-77
2023/02/02 08:22:01;;;;;;;3.40;0.50;;;;;;;5.50;59.15;97732.31;10484759;28;20410;-76
2023/02/02 08:27:22;;;;;;;3.53;0.70;;;;;;;5.32;59.30;97743.28;10471493;28;20044;-76
2023/02/02 08:32:43;;;;;;;6.70;0.90;;;;;;;5.11;59.97;97748.31;10512024;28;20043;-76
2023/02/02 08:38:06;;;;;;;4.55;0.80;;;;;;;5.12;59.85;97752.56;10481184;28;20041;-79
2023/02/02 08:43:28;;;;;;;4.57;0.98;;;;;;;5.07;59.76;97754.22;10471277;28;20509;-79
2023/02/02 08:48:49;;;;;;;6.15;1.10;;;;;;;5.13;59.75;97760.31;10489258;28;20043;-76
2023/02/02 08:54:10;;;;;;;10.52;1.10;;;;;;;5.10;59.79;97749.59;10525698;28;20146;-77
2023/02/02 08:59:31;;;;;;;4.63;0.60;;;;;;;5.41;60.20;97759.31;10525027;28;20090;-78
2023/02/02 09:04:52;;;;;;;9.95;0.88;;;;;;;5.50;59.14;97768.28;10533928;28;20051;-77
2023/02/02 09:10:13;;;;;;;6.90;0.80;;;;;;;5.63;58.98;97765.28;10524749;28;20475;-77
2023/02/02 09:15:34;;;;;;;6.00;0.90;;;;;;;5.55;58.76;97767.38;10539380;28;20114;-77
2023/02/02 09:21:04;;;;;;;7.93;0.88;;;;;;;5.51;58.96;97780.88;10552826;28;20040;-77
2023/02/02 09:26:26;;;;;;;6.07;0.93;;;;;;;5.46;59.25;97779.75;10510932;28;20044;-77
2023/02/02 09:31:48;;;;;;;4.90;0.93;;;;;;;5.45;59.00;97789.38;10496833;28;20055;-77
2023/02/02 09:37:09;;;;;;;6.50;0.90;;;;;;;5.51;58.57;97791.94;10510616;28;20040;-77
2023/02/02 09:42:33;;;;;;;3.58;0.90;;;;;;;5.68;58.80;97800.34;10510518;28;20093;-77
2023/02/02 09:47:57;;;;;;;6.13;0.93;;;;;;;6.07;58.44;97809.22;10510480;28;20044;-78
2023/02/02 09:53:46;;;;;;;7.88;1.13;;;;;;;7.28;57.74;97801.97;10500581;28;20044;-77
2023/02/02 09:59:21;;;;;;;6.28;1.10;;;;;;;8.00;54.72;97811.09;10512529;28;20073;-78
2023/02/02 10:04:47;;;;;;;5.65;0.70;;;;;;;8.01;53.46;97821.69;10491680;28;20436;-79
2023/02/02 10:10:09;;;;;;;;;;;;;;;7.57;54.08;97827.19;10540870;28;20039;-78
2023/02/02 10:15:32;;;;;;;7.18;1.08;;;;;;;7.35;54.92;97812.25;10531056;28;20353;-78
2023/02/02 10:20:55;;;;;;;8.93;0.90;;;;;;;7.85;55.14;97825.94;10543191;28;20044;-79
2023/02/02 10:26:18;;;;;;;7.28;1.00;;;;;;;9.17;54.67;97829.78;10529464;28;20085;-78
2023/02/02 10:31:48;;;;;;;6.10;0.90;;;;;;;12.61;50.71;97822.16;10516821;28;20071;-79
2023/02/02 10:37:15;;;;;;;5.20;0.93;;;;;;;17.04;43.09;97822.06;10513484;28;20041;-76
2023/02/02 10:48:46;;;;;;;5.28;0.95;;;;;;;15.44;38.14;97818.84;10551942;28;20486;-75
2023/02/02 10:54:28;;;;;;;4.75;0.70;;;;;;;14.39;38.61;97828.16;10552154;28;20036;-74
2023/02/02 11:00:04;;;;;;;5.70;0.90;;;;;;;15.77;39.33;97845.06;10556894;28;20040;-76
2023/02/02 11:11:25;;;;;;;5.68;0.80;;;;;;;15.07;36.99;97840.84;10534214;28;20097;-75
2023/02/02 11:16:46;;;;;;;4.18;1.08;;;;;;;13.63;37.62;97831.69;10569157;27;20042;-78
2023/02/02 11:22:22;;;;;;;4.25;0.55;;;;;;;12.11;38.89;97837.28;10579570;27;20046;-78
2023/02/02 11:27:43;;;;;;;6.40;1.00;;;;;;;12.02;39.93;97832.50;10591608;27;20043;-75
2023/02/02 11:33:24;;;;;;;4.50;0.70;;;;;;;12.38;39.29;97847.34;10582678;27;20073;-76
2023/02/02 11:38:45;;;;;;;5.15;0.88;;;;;;;12.49;38.48;97829.81;10595365;27;20044;-75
2023/02/02 11:44:13;;;;;;;7.43;1.35;;;;;;;11.71;39.20;97830.56;10575684;28;20035;-74
2023/02/02 11:49:37;;;;;;;3.78;0.70;;;;;;;11.38;39.38;97835.38;10547681;28;20061;-75
2023/02/02 11:55:00;;;;;;;5.60;0.80;;;;;;;10.86;39.78;97836.13;10560246;28;20036;-75
2023/02/02 12:00:25;;;;;;;6.00;0.93;;;;;;;10.67;40.24;97836.94;10545483;28;20048;-75
2023/02/02 12:05:48;;;;;;;7.15;0.70;;;;;;;10.22;40.42;97833.09;10544887;28;20071;-76
2023/02/02 12:11:10;;;;;;;4.78;1.15;;;;;;;9.94;40.89;97843.72;10571702;28;20044;-75
2023/02/02 12:16:39;;;;;;;4.22;0.57;;;;;;;10.30;41.23;97842.06;10559819;28;20040;-75
2023/02/02 12:22:15;;;;;;;4.22;0.77;;;;;;;9.76;41.71;97853.56;10558322;28;20047;-75
2023/02/02 12:27:56;;;;;;;5.95;0.70;;;;;;;9.73;42.64;97829.63;10555482;28;20127;-75
2023/02/02 12:33:32;;;;;;;4.45;0.60;;;;;;;10.29;41.83;97827.38;10535588;28;20055;-75
2023/02/02 12:39:00;;;;;;;4.32;0.70;;;;;;;10.81;41.86;97840.72;10549690;28;20039;-75
2023/02/02 12:44:30;;;;;;;4.18;0.40;;;;;;;10.88;40.43;97833.47;10576425;28;20401;-75
2023/02/02 12:49:54;;;;;;;7.00;0.98;;;;;;;10.76;41.56;97838.22;10561434;28;20456;-76
2023/02/02 12:55:33;;;;;;;5.63;1.20;;;;;;;10.44;41.31;97843.06;10562366;28;20044;-75
2023/02/02 13:01:00;;;;;;;3.97;0.63;;;;;;;9.93;42.01;97841.50;10545499;28;20405;-75
2023/02/02 13:06:28;;;;;;;6.45;0.60;;;;;;;9.63;41.72;97848.41;10546000;28;20047;-75
2023/02/02 13:11:54;;;;;;;7.13;1.48;;;;;;;9.26;42.36;97859.66;10544429;28;20127;-73
2023/02/02 13:17:33;;;;;;;5.13;0.50;;;;;;;9.05;43.07;97862.25;10530726;28;20508;-73
2023/02/02 13:22:56;;;;;;;3.92;0.50;;;;;;;9.06;43.06;97877.66;10538319;28;20036;-74
2023/02/02 13:28:31;;;;;;;4.90;0.90;;;;;;;8.67;43.53;97858.03;10539065;28;20396;-75
2023/02/02 13:34:17;;;;;;;4.45;0.60;;;;;;;8.73;44.25;97871.69;10533697;28;20043;-75
2023/02/02 13:39:41;;;;;;;6.80;0.50;;;;;;;8.55;43.75;97874.53;10508529;28;20051;-75
2023/02/02 13:45:47;;;;;;;6.07;0.50;;;;;;;7.99;44.65;97890.25;10524564;28;20046;-77
2023/02/02 13:51:49;;;;;;;3.42;0.73;;;;;;;7.88;45.01;97879.66;10517796;28;20143;-79
2023/02/02 13:57:35;;;;;;;6.30;0.50;;;;;;;7.82;45.26;97893.06;10492662;28;20063;-79
2023/02/02 14:02:58;;;;;;;4.22;0.40;;;;;;;7.68;45.36;97898.94;10545410;28;20092;-79
2023/02/02 14:08:20;;;;;;;4.63;0.63;;;;;;;7.51;45.50;97890.59;10546016;28;20052;-79
2023/02/02 14:19:34;;;;;;;3.72;0.77;;;;;;;7.46;46.54;97925.66;10545980;28;20123;-77
2023/02/02 14:24:56;;;;;;;2.33;0.60;;;;;;;7.24;46.53;97925.84;10546359;28;20493;-79
2023/02/02 14:30:21;;;;;;;5.22;0.80;;;;;;;6.82;47.50;97941.13;10545449;28;20044;-78
2023/02/02 14:35:43;;;;;;;3.75;0.57;;;;;;;6.57;47.18;97946.66;10531161;28;20040;-79
2023/02/02 14:43:43;;;;;;;5.88;0.95;;;;;;;6.29;49.09;97955.31;10545634;28;20109;-79
2023/02/02 14:47:02;;;;;;;6.28;0.90;;;;;;;6.30;48.88;97963.06;10548765;28;20055;-79
2023/02/02 14:52:23;;;;;;;3.90;0.80;;;;;;;6.35;48.71;97964.13;10514294;28;20040;-79
2023/02/02 14:57:44;;;;;;;3.30;0.50;;;;;;;6.14;49.25;97975.50;10499288;28;20048;-75
2023/02/02 15:03:34;;;;;;;7.57;0.93;;;;;;;5.97;49.92;97997.50;10507557;28;20048;-78
2023/02/02 15:09:27;;;;;;;6.43;0.90;;;;;;;6.06;50.35;98004.53;10516984;28;20504;-77
2023/02/02 15:15:07;;;;;;;5.10;1.00;;;;;;;6.01;50.57;98009.72;10564158;28;20059;-77
2023/02/02 15:20:31;;;;;;;6.20;0.80;;;;;;;5.92;50.22;98020.63;10555613;28;20036;-77
2023/02/02 15:26:07;;;;;;;6.60;1.00;;;;;;;5.92;50.30;98032.44;10536690;28;20044;-78
2023/02/02 15:31:45;;;;;;;8.98;0.85;;;;;;;5.89;51.04;98052.94;10565563;28;20044;-77
2023/02/02 15:37:07;;;;;;;5.22;1.17;;;;;;;5.75;51.00;98060.69;10523939;28;20046;-77
2023/02/02 15:42:53;;;;;;;5.43;0.70;;;;;;;5.55;52.11;98058.09;10552723;28;20043;-76
2023/02/02 15:48:20;;;;;;;5.60;0.98;;;;;;;5.25;52.67;98100.34;10499981;28;20036;-77
2023/02/02 15:53:42;;;;;;;3.95;0.60;;;;;;;5.14;53.14;98102.16;10525620;28;20056;-79
2023/02/02 15:59:18;;;;;;;8.35;1.17;;;;;;;5.10;54.02;98114.84;10570592;28;20035;-77
2023/02/02 16:04:41;;;;;;;4.30;0.85;;;;;;;4.96;54.66;98127.38;10543432;28;20554;-77
2023/02/02 16:10:03;;;;;;;6.68;1.05;;;;;;;4.75;54.59;98125.44;10541145;28;20470;-77
2023/02/02 16:15:26;;;;;;;4.72;1.00;;;;;;;4.57;54.59;98138.25;10555384;28;20051;-78
2023/02/02 16:20:47;;;;;;;4.97;1.13;;;;;;;4.48;55.31;98140.78;10541492;28;20531;-79
2023/02/02 16:26:10;;;;;;;8.13;1.45;;;;;;;4.42;55.69;98143.69;10554805;28;20502;-79
2023/02/02 16:31:33;;;;;;;5.00;1.30;;;;;;;4.32;55.53;98162.03;10540599;28;20375;-79
2023/02/02 16:37:14;;;;;;;4.93;0.88;;;;;;;4.26;56.28;98167.00;10554326;28;20039;-80
2023/02/02 16:42:35;;;;;;;3.05;0.90;;;;;;;4.21;56.55;98185.19;10541408;28;20043;-79
2023/02/02 16:48:10;;;;;;;2.45;0.70;;;;;;;4.18;57.15;98185.53;10540320;28;20393;-77
2023/02/02 16:53:31;;;;;;;6.32;1.05;;;;;;;4.14;57.37;98191.38;10542891;28;20046;-77
2023/02/02 16:58:56;;;;;;;2.63;0.90;;;;;;;4.12;57.09;98198.75;10553807;28;20032;-77
2023/02/02 17:04:28;;;;;;;4.97;1.10;;;;;;;4.06;57.73;98201.66;10554668;28;20112;-79
2023/02/02 17:09:50;;;;;;;6.43;1.10;;;;;;;4.03;58.56;98211.75;10553354;28;20122;-79
2023/02/02 17:15:15;;;;;;;8.07;1.83;;;;;;;4.03;58.77;98213.75;10567023;28;20139;-79
2023/02/02 17:20:37;;;;;;;3.83;0.95;;;;;;;4.00;58.31;98226.66;10552939;28;20035;-77
2023/02/02 17:25:59;;;;;;;3.70;0.85;;;;;;;3.97;59.37;98246.31;10552738;28;20036;-77
2023/02/02 17:31:20;;;;;;;4.75;0.90;;;;;;;3.94;59.86;98258.44;10552443;28;20119;-77
2023/02/02 17:36:42;;;;;;;5.03;1.10;;;;;;;3.88;60.54;98263.34;10566569;28;20040;-79
2023/02/02 17:42:04;;;;;;;6.47;1.05;;;;;;;3.83;60.19;98266.97;10538638;28;20042;-79
2023/02/02 17:47:25;;;;;;;4.03;1.00;;;;;;;3.80;60.75;98290.16;10552345;28;20529;-78
2023/02/02 17:52:48;;;;;;;2.83;0.80;;;;;;;3.79;59.99;98299.72;10566126;28;20123;-80
2023/02/02 17:58:11;;;;;;;4.35;1.10;;;;;;;3.73;60.95;98308.84;10552307;28;20487;-79
2023/02/02 18:03:34;;;;;;;3.20;0.90;;;;;;;3.68;61.08;98312.47;10552454;28;20052;-78
2023/02/02 18:08:55;;;;;;;6.72;1.08;;;;;;;3.65;60.51;98308.00;10566134;28;20309;-78
2023/02/02 18:14:16;;;;;;;3.58;1.10;;;;;;;3.65;61.05;98330.09;10537865;28;20104;-80
2023/02/02 18:19:38;;;;;;;3.78;0.80;;;;;;;3.63;61.33;98329.16;10537666;28;20118;-79
2023/02/02 18:24:59;;;;;;;4.78;0.93;;;;;;;3.61;61.42;98337.22;10551488;28;20040;-78
2023/02/02 18:30:20;;;;;;;5.68;0.80;;;;;;;3.61;61.95;98345.53;10554314;28;20035;-78
2023/02/02 18:35:44;;;;;;;5.53;1.17;;;;;;;3.62;61.75;98350.50;10573741;28;20473;-79
2023/02/02 18:41:05;;;;;;;;;;;;;;;3.72;62.41;98373.63;10560102;28;20046;-79
2023/02/02 18:46:26;;;;;;;5.35;1.30;;;;;;;3.83;61.61;98378.19;10544825;28;19919;-78
2023/02/02 18:51:47;;;;;;;4.40;1.10;;;;;;;3.86;61.67;98365.31;10572870;28;20047;-79
2023/02/02 18:57:12;;;;;;;5.20;1.25;;;;;;;3.94;62.03;98383.47;10558535;28;20473;-79
2023/02/02 19:02:35;;;;;;;7.38;1.38;;;;;;;4.06;61.54;98389.53;10558514;28;20067;-77
2023/02/02 19:07:57;;;;;;;4.53;1.08;;;;;;;4.13;61.97;98407.44;10558079;28;20067;-78
2023/02/02 19:13:20;;;;;;;4.57;1.10;;;;;;;4.22;61.94;98404.22;10543957;28;20039;-77
2023/02/02 19:18:41;;;;;;;3.30;1.23;;;;;;;4.30;61.46;98408.56;10556016;28;20039;-77
2023/02/02 19:24:08;;;;;;;6.25;1.20;;;;;;;4.38;61.38;98418.97;10543432;28;20046;-80
2023/02/02 19:29:31;;;;;;;4.28;1.20;;;;;;;4.44;61.89;98422.34;10529844;28;20481;-79
2023/02/02 19:34:53;;;;;;;4.82;1.10;;;;;;;4.47;61.84;98429.56;10556696;28;20122;-80
2023/02/02 19:40:21;;;;;;;8.02;1.35;;;;;;;4.56;61.46;98445.72;10542545;28;20051;-80
2023/02/02 19:45:43;;;;;;;4.28;1.30;;;;;;;4.56;61.28;98451.25;10539482;28;20039;-81
2023/02/02 19:51:40;;;;;;;9.35;2.60;;;;;;;4.52;61.73;98456.34;10501742;28;20047;-80
2023/02/02 19:57:20;;;;;;;7.30;2.45;;;;;;;4.39;61.76;98442.56;10514253;28;20071;-80
2023/02/02 20:02:49;;;;;;;8.93;4.00;;;;;;;4.30;61.58;98452.78;10513423;28;20040;-80
2023/02/02 20:08:13;;;;;;;13.00;4.22;;;;;;;4.27;62.08;98462.16;10527100;28;20101;-79
2023/02/02 20:13:37;;;;;;;8.03;3.37;;;;;;;4.25;62.16;98456.44;10541305;28;20052;-80
2023/02/02 20:18:58;;;;;;;11.45;3.78;;;;;;;4.25;61.64;98445.38;10527330;28;20051;-80
2023/02/02 20:24:24;;;;;;;10.43;4.15;;;;;;;4.24;62.17;98465.22;10513085;28;20047;-78
2023/02/02 20:29:46;;;;;;;9.05;3.40;;;;;;;4.25;62.03;98467.50;10512692;28;20040;-79
2023/02/02 20:35:35;;;;;;;8.63;3.25;;;;;;;4.22;61.65;98476.09;10516035;28;20093;-78
2023/02/02 20:40:58;;;;;;;8.90;3.08;;;;;;;4.18;61.53;98478.44;10526334;28;20402;-78
2023/02/02 20:46:18;;;;;;;9.30;3.05;;;;;;;4.15;62.08;98494.06;10521629;28;20043;-78
2023/02/02 20:51:40;;;;;;;6.72;2.22;;;;;;;4.11;61.93;98499.16;10498802;28;20040;-79
2023/02/02 20:57:01;;;;;;;9.50;3.15;;;;;;;4.04;62.30;98505.31;10515205;28;20570;-78
2023/02/02 21:02:23;;;;;;;8.10;3.33;;;;;;;3.98;62.10;98505.44;10498155;28;20522;-78
2023/02/02 21:07:44;;;;;;;7.95;2.92;;;;;;;3.82;62.08;98486.44;10504419;28;20044;-78
2023/02/02 21:13:05;;;;;;;5.97;2.20;;;;;;;3.66;62.56;98491.72;10500982;28;20475;-79
2023/02/02 21:18:26;;;;;;;5.75;2.25;;;;;;;3.53;62.49;98500.00;10487171;28;20135;-78
2023/02/02 21:23:47;;;;;;;8.38;2.50;;;;;;;3.49;63.85;98505.09;10519059;28;20036;-79
2023/02/02 21:29:08;;;;;;;7.03;1.83;;;;;;;3.53;63.56;98502.03;10492575;28;20375;-79
2023/02/02 21:34:29;;;;;;;7.13;2.40;;;;;;;3.61;63.52;98517.44;10505125;28;20089;-79
2023/02/02 21:39:52;;;;;;;5.63;1.77;;;;;;;3.70;63.74;98517.03;10494311;28;20044;-78
2023/02/02 21:45:20;;;;;;;7.80;2.35;;;;;;;3.74;63.91;98517.44;10524625;28;20048;-78
2023/02/02 21:50:41;;;;;;;6.25;2.13;;;;;;;3.76;63.52;98516.16;10524095;28;20101;-78
2023/02/02 21:56:19;;;;;;;6.25;1.90;;;;;;;3.78;63.94;98513.63;10512198;28;20094;-78
2023/02/02 22:01:41;;;;;;;8.18;1.95;;;;;;;3.77;64.00;98520.44;10511426;28;20048;-78
2023/02/02 22:07:13;;;;;;;4.97;1.85;;;;;;;3.78;63.70;98524.69;10554357;28;20397;-79
2023/02/02 22:12:39;;;;;;;7.25;2.15;;;;;;;3.77;64.02;98512.88;10560542;28;20055;-78
2023/02/02 22:18:09;;;;;;;7.38;1.95;;;;;;;3.79;63.99;98518.63;10559932;28;20397;-79
2023/02/02 22:23:30;;;;;;;5.05;1.80;;;;;;;3.84;64.41;98517.00;10547609;28;20054;-78
2023/02/02 22:28:51;;;;;;;6.10;2.00;;;;;;;3.80;64.10;98519.38;10559610;28;20443;-78
2023/02/02 22:34:12;;;;;;;5.70;1.33;;;;;;;3.75;64.28;98520.94;10545259;28;20036;-78
2023/02/02 22:39:37;;;;;;;6.47;1.70;;;;;;;3.71;64.02;98531.56;10559188;28;20050;-79
2023/02/02 22:44:58;;;;;;;5.15;1.58;;;;;;;3.65;64.49;98537.19;10559350;28;20044;-78
2023/02/02 22:50:21;;;;;;;6.75;2.22;;;;;;;3.54;64.90;98529.09;10559035;28;20042;-78
2023/02/02 22:55:42;;;;;;;6.47;2.27;;;;;;;3.44;64.95;98536.28;10558836;28;20447;-79
2023/02/02 23:01:03;;;;;;;6.50;2.00;;;;;;;3.37;65.27;98523.09;10544119;28;20039;-78
2023/02/02 23:06:24;;;;;;;6.32;1.70;;;;;;;3.24;66.18;98526.59;10542873;28;20060;-78
2023/02/02 23:11:45;;;;;;;7.07;1.73;;;;;;;3.08;66.67;98522.81;10510777;28;20466;-78
2023/02/02 23:17:09;;;;;;;9.00;1.93;;;;;;;2.97;66.15;98527.75;10525283;28;20032;-78
2023/02/02 23:22:30;;;;;;;5.55;1.92;;;;;;;2.93;67.23;98522.56;10504711;28;20399;-78
2023/02/02 23:27:51;;;;;;;6.40;2.10;;;;;;;2.95;67.78;98516.50;10539067;28;20118;-79
2023/02/02 23:33:12;;;;;;;7.20;2.55;;;;;;;2.97;68.05;98511.94;10511115;28;20040;-78
2023/02/02 23:38:33;;;;;;;5.60;1.50;;;;;;;3.04;67.39;98508.59;10525086;28;20033;-77
2023/02/02 23:43:53;;;;;;;10.40;2.28;;;;;;;3.11;67.47;98498.97;10510579;28;20136;-78
2023/02/02 23:49:14;;;;;;;6.30;1.50;;;;;;;3.15;67.87;98502.88;10510494;28;20051;-79
2023/02/02 23:54:35;;;;;;;5.32;1.30;;;;;;;3.19;67.18;98483.28;10510714;28;20048;-77
2023/02/02 23:59:56;;;;;;;6.68;1.73;;;;;;;3.25;68.18;98480.41;10527701;28;20363;-79
